sensor_id;sensor_type;location;lat;lon;timestamp;P1;durP1;ratioP1;P2;durP2;ratioP2
14736;SDS011;7459;53.590;10.062;2022-12-07T00:01:08;16.90;;;8.45;;
14736;SDS011;7459;53.590;10.062;2022-12-07T00:03:41;18.73;;;8.25;;
14736;SDS011;7459;53.590;10.062;2022-12-07T00:06:08;17.92;;;8.60;;
14736;SDS011;7459;53.590;10.062;2022-12-07T00:08:37;17.27;;;9.43;;
14736;SDS011;7459;53.590;10.062;2022-12-07T00:11:07;18.27;;;9.02;;
14736;SDS011;7459;53.590;10.062;2022-12-07T00:13:39;18.35;;;8.98;;
14736;SDS011;7459;53.590;10.062;2022-12-07T00:16:06;17.27;;;8.93;;
14736;SDS011;7459;53.590;10.062;2022-12-07T00:18:36;18.20;;;8.95;;
14736;SDS011;7459;53.590;10.062;2022-12-07T00:21:03;15.03;;;8.13;;
14736;SDS011;7459;53.590;10.062;2022-12-07T00:23:31;16.88;;;9.02;;
14736;SDS011;7459;53.590;10.062;2022-12-07T00:28:56;17.20;;;8.60;;
14736;SDS011;7459;53.590;10.062;2022-12-07T00:31:29;15.23;;;8.48;;
14736;SDS011;7459;53.590;10.062;2022-12-07T00:34:03;15.68;;;7.72;;
14736;SDS011;7459;53.590;10.062;2022-12-07T00:36:31;20.80;;;8.63;;
14736;SDS011;7459;53.590;10.062;2022-12-07T00:38:57;18.10;;;8.48;;
14736;SDS011;7459;53.590;10.062;2022-12-07T00:41:25;15.52;;;8.38;;
14736;SDS011;7459;53.590;10.062;2022-12-07T00:43:52;17.00;;;8.85;;
14736;SDS011;7459;53.590;10.062;2022-12-07T00:46:19;18.58;;;8.43;;
14736;SDS011;7459;53.590;10.062;2022-12-07T00:48:45;13.60;;;7.40;;
14736;SDS011;7459;53.590;10.062;2022-12-07T00:51:11;16.00;;;7.70;;
14736;SDS011;7459;53.590;10.062;2022-12-07T00:53:39;17.30;;;7.50;;
14736;SDS011;7459;53.590;10.062;2022-12-07T00:56:07;15.17;;;7.77;;
14736;SDS011;7459;53.590;10.062;2022-12-07T00:58:38;16.00;;;7.38;;
14736;SDS011;7459;53.590;10.062;2022-12-07T01:01:04;16.60;;;7.82;;
14736;SDS011;7459;53.590;10.062;2022-12-07T01:03:31;10.93;;;6.50;;
14736;SDS011;7459;53.590;10.062;2022-12-07T01:05:57;14.33;;;6.80;;
14736;SDS011;7459;53.590;10.062;2022-12-07T01:08:24;14.45;;;7.35;;
14736;SDS011;7459;53.590;10.062;2022-12-07T01:10:58;15.90;;;7.60;;
14736;SDS011;7459;53.590;10.062;2022-12-07T01:13:35;16.35;;;7.60;;
14736;SDS011;7459;53.590;10.062;2022-12-07T01:16:01;12.10;;;6.10;;
14736;SDS011;7459;53.590;10.062;2022-12-07T01:18:30;14.00;;;6.57;;
14736;SDS011;7459;53.590;10.062;2022-12-07T01:23:29;17.50;;;6.78;;
14736;SDS011;7459;53.590;10.062;2022-12-07T01:25:56;11.15;;;5.78;;
14736;SDS011;7459;53.590;10.062;2022-12-07T01:28:27;15.47;;;5.83;;
14736;SDS011;7459;53.590;10.062;2022-12-07T01:30:57;13.80;;;6.38;;
14736;SDS011;7459;53.590;10.062;2022-12-07T01:33:51;14.05;;;6.50;;
14736;SDS011;7459;53.590;10.062;2022-12-07T01:36:21;20.17;;;6.95;;
14736;SDS011;7459;53.590;10.062;2022-12-07T01:38:53;13.60;;;6.25;;
14736;SDS011;7459;53.590;10.062;2022-12-07T01:41:22;12.43;;;5.90;;
14736;SDS011;7459;53.590;10.062;2022-12-07T01:46:43;12.98;;;5.88;;
14736;SDS011;7459;53.590;10.062;2022-12-07T01:52:29;13.93;;;6.10;;
14736;SDS011;7459;53.590;10.062;2022-12-07T01:54:59;12.57;;;6.07;;
14736;SDS011;7459;53.590;10.062;2022-12-07T01:57:30;14.13;;;6.45;;
14736;SDS011;7459;53.590;10.062;2022-12-07T01:59:59;17.98;;;7.40;;
14736;SDS011;7459;53.590;10.062;2022-12-07T02:02:27;11.60;;;5.15;;
14736;SDS011;7459;53.590;10.062;2022-12-07T02:05:09;16.63;;;5.90;;
14736;SDS011;7459;53.590;10.062;2022-12-07T02:07:36;10.53;;;4.97;;
14736;SDS011;7459;53.590;10.062;2022-12-07T02:12:48;13.07;;;5.63;;
14736;SDS011;7459;53.590;10.062;2022-12-07T02:15:18;13.80;;;6.13;;
14736;SDS011;7459;53.590;10.062;2022-12-07T02:26:56;10.52;;;4.68;;
14736;SDS011;7459;53.590;10.062;2022-12-07T02:29:49;14.25;;;4.25;;
14736;SDS011;7459;53.590;10.062;2022-12-07T02:32:37;12.68;;;5.45;;
14736;SDS011;7459;53.590;10.062;2022-12-07T02:43:28;8.95;;;3.75;;
14736;SDS011;7459;53.590;10.062;2022-12-07T02:46:06;9.40;;;3.60;;
14736;SDS011;7459;53.590;10.062;2022-12-07T02:48:37;8.20;;;2.83;;
14736;SDS011;7459;53.590;10.062;2022-12-07T02:51:04;6.50;;;3.17;;
14736;SDS011;7459;53.590;10.062;2022-12-07T02:59:13;7.28;;;2.90;;
14736;SDS011;7459;53.590;10.062;2022-12-07T03:02:10;7.22;;;2.85;;
14736;SDS011;7459;53.590;10.062;2022-12-07T03:08:33;5.90;;;2.33;;
14736;SDS011;7459;53.590;10.062;2022-12-07T03:11:41;11.95;;;3.33;;
14736;SDS011;7459;53.590;10.062;2022-12-07T03:14:15;9.65;;;2.50;;
14736;SDS011;7459;53.590;10.062;2022-12-07T03:16:52;6.30;;;2.33;;
14736;SDS011;7459;53.590;10.062;2022-12-07T03:19:30;5.32;;;2.20;;
14736;SDS011;7459;53.590;10.062;2022-12-07T03:21:59;6.15;;;2.13;;
14736;SDS011;7459;53.590;10.062;2022-12-07T03:24:31;5.80;;;1.92;;
14736;SDS011;7459;53.590;10.062;2022-12-07T03:27:18;4.00;;;1.40;;
14736;SDS011;7459;53.590;10.062;2022-12-07T03:29:51;5.72;;;1.58;;
14736;SDS011;7459;53.590;10.062;2022-12-07T03:39:21;3.70;;;1.20;;
14736;SDS011;7459;53.590;10.062;2022-12-07T03:41:38;2.90;;;1.23;;
14736;SDS011;7459;53.590;10.062;2022-12-07T03:44:04;4.10;;;1.48;;
14736;SDS011;7459;53.590;10.062;2022-12-07T03:49:12;3.35;;;1.35;;
14736;SDS011;7459;53.590;10.062;2022-12-07T03:51:52;3.97;;;1.33;;
14736;SDS011;7459;53.590;10.062;2022-12-07T03:55:18;5.63;;;1.10;;
14736;SDS011;7459;53.590;10.062;2022-12-07T03:57:53;2.95;;;1.02;;
14736;SDS011;7459;53.590;10.062;2022-12-07T04:00:24;3.15;;;1.10;;
14736;SDS011;7459;53.590;10.062;2022-12-07T04:02:53;3.80;;;0.82;;
14736;SDS011;7459;53.590;10.062;2022-12-07T04:05:20;5.65;;;1.35;;
14736;SDS011;7459;53.590;10.062;2022-12-07T04:07:46;5.10;;;1.30;;
14736;SDS011;7459;53.590;10.062;2022-12-07T04:10:12;3.13;;;1.20;;
14736;SDS011;7459;53.590;10.062;2022-12-07T04:12:38;6.53;;;1.50;;
14736;SDS011;7459;53.590;10.062;2022-12-07T04:15:04;2.97;;;1.20;;
14736;SDS011;7459;53.590;10.062;2022-12-07T04:17:31;4.82;;;1.58;;
14736;SDS011;7459;53.590;10.062;2022-12-07T04:19:56;5.20;;;1.15;;
14736;SDS011;7459;53.590;10.062;2022-12-07T04:22:22;5.38;;;1.85;;
14736;SDS011;7459;53.590;10.062;2022-12-07T04:24:48;4.00;;;1.30;;
14736;SDS011;7459;53.590;10.062;2022-12-07T04:27:14;4.53;;;1.40;;
14736;SDS011;7459;53.590;10.062;2022-12-07T04:29:39;4.68;;;1.70;;
14736;SDS011;7459;53.590;10.062;2022-12-07T04:32:05;7.20;;;1.70;;
14736;SDS011;7459;53.590;10.062;2022-12-07T04:34:31;3.78;;;1.60;;
14736;SDS011;7459;53.590;10.062;2022-12-07T04:36:57;5.70;;;1.67;;
14736;SDS011;7459;53.590;10.062;2022-12-07T04:39:24;6.45;;;1.55;;
14736;SDS011;7459;53.590;10.062;2022-12-07T04:41:53;3.72;;;1.48;;
14736;SDS011;7459;53.590;10.062;2022-12-07T04:44:20;6.10;;;1.60;;
14736;SDS011;7459;53.590;10.062;2022-12-07T04:46:49;5.03;;;1.50;;
14736;SDS011;7459;53.590;10.062;2022-12-07T04:49:15;4.72;;;1.77;;
14736;SDS011;7459;53.590;10.062;2022-12-07T04:51:41;5.22;;;1.77;;
14736;SDS011;7459;53.590;10.062;2022-12-07T04:54:07;5.22;;;1.90;;
14736;SDS011;7459;53.590;10.062;2022-12-07T04:56:33;7.13;;;1.63;;
14736;SDS011;7459;53.590;10.062;2022-12-07T04:59:00;5.90;;;1.83;;
14736;SDS011;7459;53.590;10.062;2022-12-07T05:01:26;5.60;;;1.92;;
14736;SDS011;7459;53.590;10.062;2022-12-07T05:03:52;5.80;;;1.73;;
14736;SDS011;7459;53.590;10.062;2022-12-07T05:06:18;3.97;;;1.77;;
14736;SDS011;7459;53.590;10.062;2022-12-07T05:08:43;4.40;;;1.90;;
14736;SDS011;7459;53.590;10.062;2022-12-07T05:11:10;9.57;;;1.67;;
14736;SDS011;7459;53.590;10.062;2022-12-07T05:13:59;4.95;;;2.00;;
14736;SDS011;7459;53.590;10.062;2022-12-07T05:16:26;5.82;;;1.98;;
14736;SDS011;7459;53.590;10.062;2022-12-07T05:18:52;5.38;;;2.00;;
14736;SDS011;7459;53.590;10.062;2022-12-07T05:21:17;7.33;;;2.00;;
14736;SDS011;7459;53.590;10.062;2022-12-07T05:23:43;6.15;;;2.17;;
14736;SDS011;7459;53.590;10.062;2022-12-07T05:26:09;7.90;;;2.23;;
14736;SDS011;7459;53.590;10.062;2022-12-07T05:28:35;6.20;;;1.90;;
14736;SDS011;7459;53.590;10.062;2022-12-07T05:31:00;7.23;;;2.50;;
14736;SDS011;7459;53.590;10.062;2022-12-07T05:33:26;3.22;;;1.30;;
14736;SDS011;7459;53.590;10.062;2022-12-07T05:35:52;5.67;;;1.97;;
14736;SDS011;7459;53.590;10.062;2022-12-07T05:38:18;5.47;;;2.30;;
14736;SDS011;7459;53.590;10.062;2022-12-07T05:40:43;4.37;;;1.97;;
14736;SDS011;7459;53.590;10.062;2022-12-07T05:43:09;7.05;;;2.28;;
14736;SDS011;7459;53.590;10.062;2022-12-07T05:45:35;5.35;;;1.83;;
14736;SDS011;7459;53.590;10.062;2022-12-07T05:48:01;4.20;;;1.83;;
14736;SDS011;7459;53.590;10.062;2022-12-07T05:50:27;6.13;;;2.90;;
14736;SDS011;7459;53.590;10.062;2022-12-07T05:52:53;6.97;;;2.50;;
14736;SDS011;7459;53.590;10.062;2022-12-07T05:55:19;6.33;;;1.90;;
14736;SDS011;7459;53.590;10.062;2022-12-07T05:57:44;8.40;;;2.53;;
14736;SDS011;7459;53.590;10.062;2022-12-07T06:00:30;5.00;;;2.20;;
14736;SDS011;7459;53.590;10.062;2022-12-07T06:02:57;6.30;;;2.30;;
14736;SDS011;7459;53.590;10.062;2022-12-07T06:05:23;4.63;;;1.90;;
14736;SDS011;7459;53.590;10.062;2022-12-07T06:07:49;7.35;;;2.20;;
14736;SDS011;7459;53.590;10.062;2022-12-07T06:10:14;11.27;;;2.50;;
14736;SDS011;7459;53.590;10.062;2022-12-07T06:12:41;5.78;;;2.40;;
14736;SDS011;7459;53.590;10.062;2022-12-07T06:15:08;7.30;;;3.50;;
14736;SDS011;7459;53.590;10.062;2022-12-07T06:17:35;5.78;;;2.28;;
14736;SDS011;7459;53.590;10.062;2022-12-07T06:20:02;7.35;;;2.70;;
14736;SDS011;7459;53.590;10.062;2022-12-07T06:22:29;4.73;;;2.17;;
14736;SDS011;7459;53.590;10.062;2022-12-07T06:24:54;6.78;;;2.00;;
14736;SDS011;7459;53.590;10.062;2022-12-07T06:27:20;5.33;;;2.10;;
14736;SDS011;7459;53.590;10.062;2022-12-07T06:29:46;7.10;;;2.08;;
14736;SDS011;7459;53.590;10.062;2022-12-07T06:32:12;6.55;;;1.80;;
14736;SDS011;7459;53.590;10.062;2022-12-07T06:34:37;7.27;;;1.87;;
14736;SDS011;7459;53.590;10.062;2022-12-07T06:37:03;6.05;;;2.20;;
14736;SDS011;7459;53.590;10.062;2022-12-07T06:39:29;6.18;;;2.50;;
14736;SDS011;7459;53.590;10.062;2022-12-07T06:41:56;4.88;;;1.90;;
14736;SDS011;7459;53.590;10.062;2022-12-07T06:44:23;5.30;;;1.67;;
14736;SDS011;7459;53.590;10.062;2022-12-07T06:46:49;5.78;;;2.15;;
14736;SDS011;7459;53.590;10.062;2022-12-07T06:49:16;7.28;;;2.00;;
14736;SDS011;7459;53.590;10.062;2022-12-07T06:51:42;5.72;;;2.13;;
14736;SDS011;7459;53.590;10.062;2022-12-07T06:54:08;6.35;;;1.90;;
14736;SDS011;7459;53.590;10.062;2022-12-07T06:56:39;3.60;;;1.30;;
14736;SDS011;7459;53.590;10.062;2022-12-07T06:59:05;6.97;;;1.50;;
14736;SDS011;7459;53.590;10.062;2022-12-07T07:01:32;6.47;;;1.60;;
14736;SDS011;7459;53.590;10.062;2022-12-07T07:03:59;7.25;;;1.67;;
14736;SDS011;7459;53.590;10.062;2022-12-07T07:06:26;6.55;;;1.48;;
14736;SDS011;7459;53.590;10.062;2022-12-07T07:08:52;5.75;;;1.50;;
14736;SDS011;7459;53.590;10.062;2022-12-07T07:11:17;4.70;;;1.52;;
14736;SDS011;7459;53.590;10.062;2022-12-07T07:13:44;6.83;;;1.60;;
14736;SDS011;7459;53.590;10.062;2022-12-07T07:16:10;4.63;;;1.40;;
14736;SDS011;7459;53.590;10.062;2022-12-07T07:18:36;5.43;;;1.45;;
14736;SDS011;7459;53.590;10.062;2022-12-07T07:21:02;4.43;;;1.30;;
14736;SDS011;7459;53.590;10.062;2022-12-07T07:23:28;8.40;;;1.67;;
14736;SDS011;7459;53.590;10.062;2022-12-07T07:25:54;3.25;;;0.98;;
14736;SDS011;7459;53.590;10.062;2022-12-07T07:28:20;4.37;;;1.10;;
14736;SDS011;7459;53.590;10.062;2022-12-07T07:30:45;4.68;;;1.60;;
14736;SDS011;7459;53.590;10.062;2022-12-07T07:33:11;6.72;;;1.40;;
14736;SDS011;7459;53.590;10.062;2022-12-07T07:35:37;5.47;;;1.30;;
14736;SDS011;7459;53.590;10.062;2022-12-07T07:38:04;4.83;;;1.40;;
14736;SDS011;7459;53.590;10.062;2022-12-07T07:40:30;4.72;;;1.58;;
14736;SDS011;7459;53.590;10.062;2022-12-07T07:42:56;4.22;;;0.98;;
14736;SDS011;7459;53.590;10.062;2022-12-07T07:45:23;5.30;;;1.10;;
14736;SDS011;7459;53.590;10.062;2022-12-07T07:47:50;4.83;;;1.20;;
14736;SDS011;7459;53.590;10.062;2022-12-07T07:50:17;4.63;;;1.20;;
14736;SDS011;7459;53.590;10.062;2022-12-07T07:52:43;4.10;;;0.95;;
14736;SDS011;7459;53.590;10.062;2022-12-07T07:55:09;3.15;;;1.17;;
14736;SDS011;7459;53.590;10.062;2022-12-07T07:57:36;4.88;;;1.00;;
14736;SDS011;7459;53.590;10.062;2022-12-07T08:00:03;5.07;;;1.42;;
14736;SDS011;7459;53.590;10.062;2022-12-07T08:02:32;3.88;;;1.25;;
14736;SDS011;7459;53.590;10.062;2022-12-07T08:04:58;3.67;;;1.13;;
14736;SDS011;7459;53.590;10.062;2022-12-07T08:07:23;5.72;;;1.23;;
14736;SDS011;7459;53.590;10.062;2022-12-07T08:09:49;7.13;;;1.10;;
14736;SDS011;7459;53.590;10.062;2022-12-07T08:12:15;5.70;;;1.05;;
14736;SDS011;7459;53.590;10.062;2022-12-07T08:14:40;5.47;;;1.20;;
14736;SDS011;7459;53.590;10.062;2022-12-07T08:17:06;3.30;;;0.90;;
14736;SDS011;7459;53.590;10.062;2022-12-07T08:19:32;2.65;;;0.85;;
14736;SDS011;7459;53.590;10.062;2022-12-07T08:21:58;4.10;;;1.10;;
14736;SDS011;7459;53.590;10.062;2022-12-07T08:24:24;5.00;;;1.40;;
14736;SDS011;7459;53.590;10.062;2022-12-07T08:26:50;3.67;;;1.10;;
14736;SDS011;7459;53.590;10.062;2022-12-07T08:29:16;5.45;;;1.52;;
14736;SDS011;7459;53.590;10.062;2022-12-07T08:31:41;4.68;;;1.00;;
14736;SDS011;7459;53.590;10.062;2022-12-07T08:34:07;3.67;;;1.47;;
14736;SDS011;7459;53.590;10.062;2022-12-07T08:36:36;4.30;;;1.13;;
14736;SDS011;7459;53.590;10.062;2022-12-07T08:39:02;4.70;;;1.10;;
14736;SDS011;7459;53.590;10.062;2022-12-07T08:41:28;7.85;;;0.98;;
14736;SDS011;7459;53.590;10.062;2022-12-07T08:43:54;4.67;;;0.60;;
14736;SDS011;7459;53.590;10.062;2022-12-07T08:46:24;5.93;;;1.60;;
14736;SDS011;7459;53.590;10.062;2022-12-07T08:49:20;3.75;;;0.73;;
14736;SDS011;7459;53.590;10.062;2022-12-07T08:51:51;8.30;;;1.27;;
14736;SDS011;7459;53.590;10.062;2022-12-07T08:54:17;6.55;;;0.80;;
14736;SDS011;7459;53.590;10.062;2022-12-07T08:56:44;5.75;;;0.90;;
14736;SDS011;7459;53.590;10.062;2022-12-07T08:59:13;4.93;;;0.85;;
14736;SDS011;7459;53.590;10.062;2022-12-07T09:01:40;6.60;;;1.23;;
14736;SDS011;7459;53.590;10.062;2022-12-07T09:04:06;2.60;;;0.90;;
14736;SDS011;7459;53.590;10.062;2022-12-07T09:06:32;5.32;;;0.70;;
14736;SDS011;7459;53.590;10.062;2022-12-07T09:08:58;7.10;;;1.50;;
14736;SDS011;7459;53.590;10.062;2022-12-07T09:11:27;3.10;;;0.80;;
14736;SDS011;7459;53.590;10.062;2022-12-07T09:13:52;4.72;;;0.80;;
14736;SDS011;7459;53.590;10.062;2022-12-07T09:16:18;7.57;;;1.00;;
14736;SDS011;7459;53.590;10.062;2022-12-07T09:18:44;3.97;;;0.82;;
14736;SDS011;7459;53.590;10.062;2022-12-07T09:21:09;4.97;;;1.10;;
14736;SDS011;7459;53.590;10.062;2022-12-07T09:23:35;6.05;;;1.20;;
14736;SDS011;7459;53.590;10.062;2022-12-07T09:26:01;3.53;;;1.00;;
14736;SDS011;7459;53.590;10.062;2022-12-07T09:28:30;7.00;;;1.35;;
14736;SDS011;7459;53.590;10.062;2022-12-07T09:30:56;6.25;;;1.25;;
14736;SDS011;7459;53.590;10.062;2022-12-07T09:33:22;4.00;;;1.10;;
14736;SDS011;7459;53.590;10.062;2022-12-07T09:35:48;7.45;;;1.38;;
14736;SDS011;7459;53.590;10.062;2022-12-07T09:38:18;4.57;;;1.23;;
14736;SDS011;7459;53.590;10.062;2022-12-07T09:40:44;11.50;;;0.90;;
14736;SDS011;7459;53.590;10.062;2022-12-07T09:43:29;5.38;;;0.98;;
14736;SDS011;7459;53.590;10.062;2022-12-07T09:45:55;5.38;;;1.30;;
14736;SDS011;7459;53.590;10.062;2022-12-07T09:48:22;6.68;;;1.00;;
14736;SDS011;7459;53.590;10.062;2022-12-07T09:50:55;3.50;;;1.15;;
14736;SDS011;7459;53.590;10.062;2022-12-07T09:53:25;4.20;;;0.90;;
14736;SDS011;7459;53.590;10.062;2022-12-07T09:56:01;4.20;;;1.15;;
14736;SDS011;7459;53.590;10.062;2022-12-07T09:58:28;5.43;;;1.25;;
14736;SDS011;7459;53.590;10.062;2022-12-07T10:00:57;2.63;;;0.90;;
14736;SDS011;7459;53.590;10.062;2022-12-07T10:03:37;5.25;;;1.40;;
14736;SDS011;7459;53.590;10.062;2022-12-07T10:06:05;4.93;;;1.10;;
14736;SDS011;7459;53.590;10.062;2022-12-07T10:08:32;3.28;;;1.27;;
14736;SDS011;7459;53.590;10.062;2022-12-07T10:10:59;4.28;;;1.00;;
14736;SDS011;7459;53.590;10.062;2022-12-07T10:13:35;3.97;;;1.33;;
14736;SDS011;7459;53.590;10.062;2022-12-07T10:18:49;3.87;;;1.00;;
14736;SDS011;7459;53.590;10.062;2022-12-07T10:29:16;5.53;;;0.95;;
14736;SDS011;7459;53.590;10.062;2022-12-07T10:31:55;5.60;;;0.80;;
14736;SDS011;7459;53.590;10.062;2022-12-07T10:34:46;6.97;;;1.10;;
14736;SDS011;7459;53.590;10.062;2022-12-07T10:44:48;2.97;;;0.87;;
14736;SDS011;7459;53.590;10.062;2022-12-07T10:59:00;6.73;;;1.00;;
14736;SDS011;7459;53.590;10.062;2022-12-07T11:01:57;4.38;;;0.77;;
14736;SDS011;7459;53.590;10.062;2022-12-07T11:04:59;3.55;;;1.00;;
14736;SDS011;7459;53.590;10.062;2022-12-07T11:10:45;6.00;;;0.85;;
14736;SDS011;7459;53.590;10.062;2022-12-07T11:13:37;4.32;;;0.80;;
14736;SDS011;7459;53.590;10.062;2022-12-07T11:19:46;6.60;;;0.75;;
14736;SDS011;7459;53.590;10.062;2022-12-07T11:28:26;4.07;;;0.80;;
14736;SDS011;7459;53.590;10.062;2022-12-07T11:31:22;3.55;;;0.80;;
14736;SDS011;7459;53.590;10.062;2022-12-07T11:37:45;3.88;;;0.70;;
14736;SDS011;7459;53.590;10.062;2022-12-07T11:42:57;6.10;;;0.70;;
14736;SDS011;7459;53.590;10.062;2022-12-07T11:45:34;4.28;;;0.60;;
14736;SDS011;7459;53.590;10.062;2022-12-07T11:50:48;7.93;;;0.50;;
14736;SDS011;7459;53.590;10.062;2022-12-07T11:53:35;6.63;;;0.93;;
14736;SDS011;7459;53.590;10.062;2022-12-07T11:56:11;5.23;;;0.90;;
14736;SDS011;7459;53.590;10.062;2022-12-07T11:58:49;4.75;;;1.48;;
14736;SDS011;7459;53.590;10.062;2022-12-07T12:04:06;7.20;;;0.80;;
14736;SDS011;7459;53.590;10.062;2022-12-07T12:06:49;5.30;;;0.90;;
14736;SDS011;7459;53.590;10.062;2022-12-07T12:09:21;4.57;;;1.13;;
14736;SDS011;7459;53.590;10.062;2022-12-07T12:23:16;4.87;;;0.73;;
14736;SDS011;7459;53.590;10.062;2022-12-07T12:25:59;7.55;;;0.85;;
14736;SDS011;7459;53.590;10.062;2022-12-07T12:33:56;2.72;;;0.50;;
14736;SDS011;7459;53.590;10.062;2022-12-07T12:44:01;4.27;;;0.63;;
14736;SDS011;7459;53.590;10.062;2022-12-07T12:54:33;6.28;;;1.00;;
14736;SDS011;7459;53.590;10.062;2022-12-07T13:15:41;4.60;;;1.00;;
14736;SDS011;7459;53.590;10.062;2022-12-07T13:20:53;3.63;;;0.80;;
14736;SDS011;7459;53.590;10.062;2022-12-07T13:26:12;5.38;;;0.82;;
14736;SDS011;7459;53.590;10.062;2022-12-07T13:37:10;3.25;;;0.75;;
14736;SDS011;7459;53.590;10.062;2022-12-07T13:39:47;4.70;;;0.75;;
14736;SDS011;7459;53.590;10.062;2022-12-07T13:42:22;5.60;;;0.60;;
14736;SDS011;7459;53.590;10.062;2022-12-07T13:44:58;6.53;;;0.73;;
14736;SDS011;7459;53.590;10.062;2022-12-07T13:49:55;7.38;;;0.68;;
14736;SDS011;7459;53.590;10.062;2022-12-07T13:52:25;7.20;;;0.68;;
14736;SDS011;7459;53.590;10.062;2022-12-07T13:57:33;4.50;;;0.70;;
14736;SDS011;7459;53.590;10.062;2022-12-07T14:00:01;3.72;;;0.88;;
14736;SDS011;7459;53.590;10.062;2022-12-07T14:02:32;5.75;;;1.35;;
14736;SDS011;7459;53.590;10.062;2022-12-07T14:08:34;2.80;;;0.50;;
14736;SDS011;7459;53.590;10.062;2022-12-07T14:16:04;3.53;;;0.50;;
14736;SDS011;7459;53.590;10.062;2022-12-07T14:18:55;4.03;;;0.90;;
14736;SDS011;7459;53.590;10.062;2022-12-07T14:21:27;4.28;;;0.82;;
14736;SDS011;7459;53.590;10.062;2022-12-07T14:24:11;5.10;;;0.70;;
14736;SDS011;7459;53.590;10.062;2022-12-07T14:27:19;3.28;;;0.40;;
14736;SDS011;7459;53.590;10.062;2022-12-07T14:29:50;3.92;;;0.60;;
14736;SDS011;7459;53.590;10.062;2022-12-07T14:32:26;6.60;;;0.82;;
14736;SDS011;7459;53.590;10.062;2022-12-07T14:34:58;4.75;;;0.40;;
14736;SDS011;7459;53.590;10.062;2022-12-07T14:37:36;4.47;;;0.75;;
14736;SDS011;7459;53.590;10.062;2022-12-07T14:40:04;2.83;;;0.60;;
14736;SDS011;7459;53.590;10.062;2022-12-07T14:42:31;5.55;;;0.90;;
14736;SDS011;7459;53.590;10.062;2022-12-07T14:44:59;3.63;;;0.60;;
14736;SDS011;7459;53.590;10.062;2022-12-07T14:47:25;5.00;;;0.88;;
14736;SDS011;7459;53.590;10.062;2022-12-07T14:49:52;3.70;;;0.63;;
14736;SDS011;7459;53.590;10.062;2022-12-07T14:52:22;4.40;;;0.57;;
14736;SDS011;7459;53.590;10.062;2022-12-07T14:54:52;3.97;;;1.10;;
14736;SDS011;7459;53.590;10.062;2022-12-07T14:57:17;4.97;;;0.93;;
14736;SDS011;7459;53.590;10.062;2022-12-07T14:59:43;2.70;;;0.77;;
14736;SDS011;7459;53.590;10.062;2022-12-07T15:02:10;3.90;;;0.65;;
14736;SDS011;7459;53.590;10.062;2022-12-07T15:04:39;5.07;;;0.40;;
14736;SDS011;7459;53.590;10.062;2022-12-07T15:07:09;3.83;;;0.50;;
14736;SDS011;7459;53.590;10.062;2022-12-07T15:09:46;2.72;;;0.50;;
14736;SDS011;7459;53.590;10.062;2022-12-07T15:12:13;4.10;;;0.40;;
14736;SDS011;7459;53.590;10.062;2022-12-07T15:14:39;4.33;;;0.60;;
14736;SDS011;7459;53.590;10.062;2022-12-07T15:17:04;3.20;;;0.75;;
14736;SDS011;7459;53.590;10.062;2022-12-07T15:19:30;2.88;;;0.65;;
14736;SDS011;7459;53.590;10.062;2022-12-07T15:21:56;3.17;;;0.60;;
14736;SDS011;7459;53.590;10.062;2022-12-07T15:24:24;5.93;;;0.80;;
14736;SDS011;7459;53.590;10.062;2022-12-07T15:26:51;8.00;;;0.70;;
14736;SDS011;7459;53.590;10.062;2022-12-07T15:29:17;4.18;;;1.23;;
14736;SDS011;7459;53.590;10.062;2022-12-07T15:31:43;4.55;;;0.70;;
14736;SDS011;7459;53.590;10.062;2022-12-07T15:34:09;8.38;;;1.20;;
14736;SDS011;7459;53.590;10.062;2022-12-07T15:36:34;4.38;;;0.70;;
14736;SDS011;7459;53.590;10.062;2022-12-07T15:39:00;4.47;;;0.70;;
14736;SDS011;7459;53.590;10.062;2022-12-07T15:41:27;4.22;;;0.70;;
14736;SDS011;7459;53.590;10.062;2022-12-07T15:43:52;5.30;;;0.90;;
14736;SDS011;7459;53.590;10.062;2022-12-07T15:46:38;5.93;;;0.57;;
14736;SDS011;7459;53.590;10.062;2022-12-07T15:49:07;2.65;;;0.52;;
14736;SDS011;7459;53.590;10.062;2022-12-07T15:51:40;2.95;;;0.85;;
14736;SDS011;7459;53.590;10.062;2022-12-07T15:54:08;4.07;;;0.90;;
14736;SDS011;7459;53.590;10.062;2022-12-07T15:56:47;3.75;;;0.70;;
14736;SDS011;7459;53.590;10.062;2022-12-07T15:59:14;2.50;;;0.50;;
14736;SDS011;7459;53.590;10.062;2022-12-07T16:01:40;3.10;;;0.60;;
14736;SDS011;7459;53.590;10.062;2022-12-07T16:04:05;3.70;;;0.65;;
14736;SDS011;7459;53.590;10.062;2022-12-07T16:06:31;3.13;;;0.57;;
14736;SDS011;7459;53.590;10.062;2022-12-07T16:08:57;1.95;;;0.52;;
14736;SDS011;7459;53.590;10.062;2022-12-07T16:11:23;2.23;;;0.60;;
14736;SDS011;7459;53.590;10.062;2022-12-07T16:13:48;5.60;;;0.47;;
14736;SDS011;7459;53.590;10.062;2022-12-07T16:16:15;3.55;;;0.63;;
14736;SDS011;7459;53.590;10.062;2022-12-07T16:18:43;3.65;;;1.30;;
14736;SDS011;7459;53.590;10.062;2022-12-07T16:21:11;2.88;;;0.75;;
14736;SDS011;7459;53.590;10.062;2022-12-07T16:23:37;2.90;;;0.70;;
14736;SDS011;7459;53.590;10.062;2022-12-07T16:26:04;3.42;;;0.60;;
14736;SDS011;7459;53.590;10.062;2022-12-07T16:28:36;3.63;;;0.70;;
14736;SDS011;7459;53.590;10.062;2022-12-07T16:31:03;3.83;;;0.93;;
14736;SDS011;7459;53.590;10.062;2022-12-07T16:33:41;3.33;;;0.60;;
14736;SDS011;7459;53.590;10.062;2022-12-07T16:36:08;7.82;;;1.00;;
14736;SDS011;7459;53.590;10.062;2022-12-07T16:38:36;2.03;;;0.80;;
14736;SDS011;7459;53.590;10.062;2022-12-07T16:41:04;3.33;;;1.15;;
14736;SDS011;7459;53.590;10.062;2022-12-07T16:43:31;5.28;;;1.20;;
14736;SDS011;7459;53.590;10.062;2022-12-07T16:45:57;4.40;;;0.90;;
14736;SDS011;7459;53.590;10.062;2022-12-07T16:48:23;11.03;;;2.63;;
14736;SDS011;7459;53.590;10.062;2022-12-07T16:50:48;5.70;;;1.00;;
14736;SDS011;7459;53.590;10.062;2022-12-07T16:53:14;4.70;;;0.83;;
14736;SDS011;7459;53.590;10.062;2022-12-07T16:55:44;8.48;;;0.90;;
14736;SDS011;7459;53.590;10.062;2022-12-07T16:58:13;7.35;;;0.90;;
14736;SDS011;7459;53.590;10.062;2022-12-07T17:00:41;6.60;;;1.50;;
14736;SDS011;7459;53.590;10.062;2022-12-07T17:03:08;3.58;;;0.85;;
14736;SDS011;7459;53.590;10.062;2022-12-07T17:05:38;5.03;;;1.13;;
14736;SDS011;7459;53.590;10.062;2022-12-07T17:08:09;5.05;;;1.20;;
14736;SDS011;7459;53.590;10.062;2022-12-07T17:10:36;4.85;;;1.50;;
14736;SDS011;7459;53.590;10.062;2022-12-07T17:13:05;6.57;;;1.23;;
14736;SDS011;7459;53.590;10.062;2022-12-07T17:15:57;3.80;;;1.40;;
14736;SDS011;7459;53.590;10.062;2022-12-07T17:18:27;8.60;;;1.38;;
14736;SDS011;7459;53.590;10.062;2022-12-07T17:20:55;4.80;;;1.60;;
14736;SDS011;7459;53.590;10.062;2022-12-07T17:23:21;7.47;;;1.30;;
14736;SDS011;7459;53.590;10.062;2022-12-07T17:25:46;2.67;;;1.08;;
14736;SDS011;7459;53.590;10.062;2022-12-07T17:28:12;5.73;;;1.10;;
14736;SDS011;7459;53.590;10.062;2022-12-07T17:30:38;5.67;;;1.60;;
14736;SDS011;7459;53.590;10.062;2022-12-07T17:33:04;6.00;;;1.15;;
14736;SDS011;7459;53.590;10.062;2022-12-07T17:35:29;12.10;;;1.90;;
14736;SDS011;7459;53.590;10.062;2022-12-07T17:37:55;8.17;;;2.73;;
14736;SDS011;7459;53.590;10.062;2022-12-07T17:40:21;6.43;;;1.67;;
14736;SDS011;7459;53.590;10.062;2022-12-07T17:42:47;8.77;;;1.90;;
14736;SDS011;7459;53.590;10.062;2022-12-07T17:45:15;6.90;;;2.05;;
14736;SDS011;7459;53.590;10.062;2022-12-07T17:47:42;6.05;;;1.95;;
14736;SDS011;7459;53.590;10.062;2022-12-07T17:50:08;9.43;;;2.17;;
14736;SDS011;7459;53.590;10.062;2022-12-07T17:52:38;5.30;;;1.33;;
14736;SDS011;7459;53.590;10.062;2022-12-07T17:55:23;3.63;;;1.92;;
14736;SDS011;7459;53.590;10.062;2022-12-07T17:57:49;4.88;;;1.83;;
14736;SDS011;7459;53.590;10.062;2022-12-07T18:00:16;6.53;;;1.83;;
14736;SDS011;7459;53.590;10.062;2022-12-07T18:02:43;6.93;;;1.90;;
14736;SDS011;7459;53.590;10.062;2022-12-07T18:05:09;4.90;;;1.95;;